New Munster, Wisconsin
Current Conditions -  °F | °C
As of 1:55 AM on Friday 19 Dec 2014 (Local Time) from KBUU Reporting Station
Overcast Overcast  
Wind Chill: 25°   Ceiling: 1600
Heat Index: 25°   Visibility: 10mi
Dew Point: 20°   Wind: 3mph
Humidity: 82%   Direction: 310°NW
Pressure: 30.28"   Gusts: NA
Location:  42.58°N, 88.23°W
Report Text: KBUU 190755Z AUTO 31003KT 10SM OVC016 M04/M06 A3028 RMK AO2 T10391065
Loading
Personal Weather Stations






























Interactive Weather Map New forecast layout! Learn more

10-Day Weather Forecast

Advertisements
Track Severe Weather on mobile